Seven Points, Texas
Current Conditions -  °F | °C
As of 5:53 PM on Sunday 23 Nov 2014 (Local Time) from KCRS Reporting Station
Clear Clear  
Wind Chill: 67°   Ceiling: Unl
Heat Index: 67°   Visibility: 10mi
Dew Point: 42°   Wind: 7mph
Humidity: 40%   Direction: 240°WSW
Pressure: 29.52"   Gusts: NA
Location:  32.3343°N, 96.2786°W
Report Text: KCRS 232353Z AUTO 24006KT 10SM CLR 19/06 A2952 RMK AO2 SLP993 T01940056 10256 20194 53027
Loading
Personal Weather Stations






























Interactive Weather Map New forecast layout! Learn more

10-Day Weather Forecast

Advertisements
Track Severe Weather on mobile